createdAt,value
2018-03-09T00:00:44.257Z,99.90
2018-03-09T00:03:10.686Z,99.90
2018-03-09T00:05:37.695Z,99.90
2018-03-09T00:08:03.970Z,99.90
2018-03-09T00:10:30.176Z,99.90
2018-03-09T00:12:56.553Z,99.90
2018-03-09T00:15:22.817Z,99.90
2018-03-09T00:17:49.076Z,99.90
2018-03-09T00:20:15.661Z,99.90
2018-03-09T00:22:41.901Z,99.90
2018-03-09T00:25:08.157Z,99.90
2018-03-09T00:27:34.386Z,99.90
2018-03-09T00:30:00.609Z,99.90
2018-03-09T00:32:26.841Z,99.90
2018-03-09T00:34:53.104Z,99.90
2018-03-09T00:37:19.338Z,99.90
2018-03-09T00:39:45.579Z,99.90
2018-03-09T00:42:11.948Z,99.90
2018-03-09T00:44:40.865Z,99.90
2018-03-09T00:47:07.862Z,99.90
2018-03-09T00:49:34.137Z,99.90
2018-03-09T00:52:00.393Z,99.90
2018-03-09T00:54:26.590Z,99.90
2018-03-09T00:56:52.901Z,99.90
2018-03-09T00:59:19.153Z,99.90
2018-03-09T01:01:45.373Z,99.90
2018-03-09T01:04:12.341Z,99.90
2018-03-09T01:06:38.590Z,99.90
2018-03-09T01:09:04.821Z,99.90
2018-03-09T01:11:31.062Z,99.90
2018-03-09T01:13:58.818Z,99.90
2018-03-09T01:16:25.805Z,99.90
2018-03-09T01:18:52.025Z,99.90
2018-03-09T01:21:18.990Z,99.90
2018-03-09T01:23:45.022Z,99.90
2018-03-09T01:26:11.065Z,99.90
2018-03-09T01:28:37.321Z,99.90
2018-03-09T01:31:04.784Z,99.90
2018-03-09T01:33:31.064Z,99.90
2018-03-09T01:35:57.301Z,99.90
2018-03-09T01:38:23.530Z,99.90
2018-03-09T01:40:50.520Z,99.90
2018-03-09T01:43:16.767Z,99.90
2018-03-09T01:45:43.784Z,99.90
2018-03-09T01:48:10.466Z,99.90
2018-03-09T01:50:36.716Z,99.90
2018-03-09T01:53:03.693Z,99.90
2018-03-09T01:55:32.069Z,99.90
2018-03-09T01:57:58.326Z,99.90
2018-03-09T02:00:24.709Z,99.90
2018-03-09T02:02:50.934Z,99.90
2018-03-09T02:05:17.153Z,99.90
2018-03-09T02:07:44.150Z,99.90
2018-03-09T02:10:10.398Z,99.90
2018-03-09T02:12:37.335Z,99.90
2018-03-09T02:15:03.569Z,99.90
2018-03-09T02:17:29.976Z,99.90
2018-03-09T02:19:56.945Z,99.90
2018-03-09T02:22:23.904Z,99.90
2018-03-09T02:24:50.106Z,99.90
2018-03-09T02:27:16.337Z,99.90
2018-03-09T02:29:54.815Z,99.90
2018-03-09T02:32:26.861Z,99.90
2018-03-09T02:34:53.089Z,99.90
2018-03-09T02:37:19.346Z,99.90
2018-03-09T02:39:45.565Z,99.90
2018-03-09T02:42:11.793Z,99.90
2018-03-09T02:44:38.039Z,99.90
2018-03-09T02:47:04.553Z,99.90
2018-03-09T02:49:30.831Z,99.90
2018-03-09T02:51:57.050Z,99.90
2018-03-09T02:54:23.307Z,99.90
2018-03-09T02:56:49.536Z,99.90
2018-03-09T02:59:15.777Z,99.90
2018-03-09T03:01:42.006Z,99.90
2018-03-09T03:04:08.266Z,99.90
2018-03-09T03:06:34.548Z,99.90
2018-03-09T03:09:00.851Z,99.90
2018-03-09T03:11:29.647Z,99.90
2018-03-09T03:13:58.653Z,99.90
2018-03-09T03:16:24.877Z,99.90
2018-03-09T03:18:51.839Z,99.90
2018-03-09T03:21:18.081Z,99.90
2018-03-09T03:23:44.319Z,99.90
2018-03-09T03:26:10.570Z,99.90
2018-03-09T03:28:36.889Z,99.90
2018-03-09T03:31:03.571Z,99.90
2018-03-09T03:33:29.805Z,99.90
2018-03-09T03:35:56.053Z,99.90
2018-03-09T03:38:22.287Z,99.90
2018-03-09T03:40:49.299Z,99.90
2018-03-09T03:43:15.453Z,99.90
2018-03-09T03:45:46.425Z,99.90
2018-03-09T03:48:13.397Z,99.90
2018-03-09T03:50:40.365Z,99.90
2018-03-09T03:53:06.598Z,99.90
2018-03-09T03:55:32.841Z,99.90
2018-03-09T03:57:59.134Z,99.90
2018-03-09T04:00:25.546Z,99.90
2018-03-09T04:02:51.781Z,99.90
2018-03-09T04:05:18.020Z,99.90
2018-03-09T04:07:44.241Z,99.90
2018-03-09T04:10:11.387Z,99.90
2018-03-09T04:12:38.341Z,99.90
2018-03-09T04:15:04.575Z,99.90
2018-03-09T04:17:34.125Z,99.90
2018-03-09T04:20:00.326Z,99.90
2018-03-09T04:22:26.659Z,99.90
2018-03-09T04:24:53.638Z,99.90
2018-03-09T04:27:20.620Z,99.90
2018-03-09T04:29:46.862Z,99.90
2018-03-09T04:32:14.205Z,99.90
2018-03-09T04:34:40.233Z,99.90
2018-03-09T04:37:07.010Z,99.90
2018-03-09T04:39:33.047Z,99.90
2018-03-09T04:41:59.090Z,99.90
2018-03-09T04:44:25.151Z,99.90
2018-03-09T04:46:51.185Z,99.90
2018-03-09T04:49:17.233Z,99.90
2018-03-09T04:51:43.437Z,99.90
2018-03-09T04:54:10.380Z,99.90
2018-03-09T04:56:36.613Z,99.90
2018-03-09T04:59:03.606Z,99.90
2018-03-09T05:01:29.821Z,99.90
2018-03-09T05:03:56.793Z,99.90
2018-03-09T05:06:23.082Z,99.90
2018-03-09T05:08:49.288Z,99.90
2018-03-09T05:11:15.589Z,99.90
2018-03-09T05:13:41.798Z,99.90
2018-03-09T05:16:08.057Z,99.90
2018-03-09T05:18:34.276Z,99.90
2018-03-09T05:21:00.517Z,99.90
2018-03-09T05:23:26.778Z,99.90
2018-03-09T05:25:52.972Z,99.90
2018-03-09T05:28:19.243Z,99.90
2018-03-09T05:30:45.466Z,99.90
2018-03-09T05:33:11.677Z,99.90
2018-03-09T05:35:38.693Z,99.90
2018-03-09T05:38:04.921Z,99.90
2018-03-09T05:40:31.146Z,99.90
2018-03-09T05:42:57.381Z,99.90
2018-03-09T05:45:23.660Z,99.90
2018-03-09T05:47:49.874Z,99.90
2018-03-09T05:50:16.104Z,99.90
2018-03-09T05:52:42.373Z,99.90
2018-03-09T05:55:08.621Z,99.90
2018-03-09T05:57:34.879Z,99.90
2018-03-09T06:00:03.184Z,99.90
2018-03-09T06:02:29.448Z,99.90
2018-03-09T06:04:56.436Z,99.90
2018-03-09T06:07:25.722Z,99.90
2018-03-09T06:09:51.965Z,99.90
2018-03-09T06:12:19.149Z,99.90
2018-03-09T06:14:45.381Z,99.90
2018-03-09T06:17:11.632Z,99.90
2018-03-09T06:19:37.856Z,99.90
2018-03-09T06:22:04.098Z,99.90
2018-03-09T06:24:30.390Z,99.90
2018-03-09T06:26:56.594Z,99.90
2018-03-09T06:29:22.866Z,99.90
2018-03-09T06:31:49.170Z,99.90
2018-03-09T06:34:15.477Z,99.90
2018-03-09T06:36:41.737Z,99.90
2018-03-09T06:39:08.033Z,99.90
2018-03-09T06:41:34.373Z,99.90
2018-03-09T06:44:00.678Z,99.90
2018-03-09T06:46:26.927Z,99.90
2018-03-09T06:48:53.951Z,99.90
2018-03-09T06:51:20.166Z,99.90
2018-03-09T06:53:46.434Z,99.90
2018-03-09T06:56:13.432Z,99.90
2018-03-09T06:58:39.713Z,99.90
2018-03-09T07:01:06.762Z,99.90
2018-03-09T07:03:33.170Z,99.90
2018-03-09T07:05:59.741Z,99.90
2018-03-09T07:08:25.969Z,99.90
2018-03-09T07:10:52.185Z,99.90
2018-03-09T07:13:18.417Z,99.90
2018-03-09T07:15:45.362Z,99.90
2018-03-09T07:18:12.337Z,99.90
2018-03-09T07:20:38.662Z,99.90
2018-03-09T07:23:04.897Z,99.90
2018-03-09T07:25:31.886Z,99.90
2018-03-09T07:27:58.113Z,99.90
2018-03-09T07:30:24.443Z,99.80
2018-03-09T07:32:50.814Z,99.90
2018-03-09T07:35:17.106Z,99.90
2018-03-09T07:37:43.343Z,99.60
2018-03-09T07:40:09.659Z,99.70
2018-03-09T07:42:36.061Z,99.80
2018-03-09T07:45:02.335Z,99.70
2018-03-09T07:47:29.295Z,99.30
2018-03-09T07:49:56.680Z,99.30
2018-03-09T07:52:22.934Z,98.90
2018-03-09T07:54:49.153Z,98.90
2018-03-09T07:57:15.458Z,99.00
2018-03-09T07:59:41.773Z,98.90
2018-03-09T08:02:08.970Z,98.70
2018-03-09T08:04:35.333Z,98.70
2018-03-09T08:07:01.750Z,98.30
2018-03-09T08:09:28.055Z,98.10
2018-03-09T08:11:57.339Z,97.60
2018-03-09T08:14:22.161Z,97.60
2018-03-09T08:16:50.865Z,98.10
2018-03-09T08:19:17.257Z,97.20
2018-03-09T08:21:43.558Z,97.80
2018-03-09T08:24:09.880Z,97.50
2018-03-09T08:26:36.353Z,97.60
2018-03-09T08:29:02.665Z,97.90
2018-03-09T08:31:29.016Z,97.90
2018-03-09T08:33:58.448Z,97.30
2018-03-09T08:36:25.501Z,97.30
2018-03-09T08:38:51.812Z,97.30
2018-03-09T08:41:18.143Z,97.40
2018-03-09T08:43:44.391Z,97.00
2018-03-09T08:46:10.709Z,97.30
2018-03-09T08:48:37.776Z,96.90
2018-03-09T08:51:04.203Z,96.90
2018-03-09T08:53:30.494Z,96.60
2018-03-09T08:56:02.017Z,96.90
2018-03-09T08:58:28.341Z,96.20
2018-03-09T09:00:55.425Z,96.90
2018-03-09T09:03:21.761Z,96.90
2018-03-09T09:05:48.103Z,96.80
2018-03-09T09:08:14.414Z,96.70
2018-03-09T09:10:45.560Z,96.40
2018-03-09T09:13:11.900Z,97.30
2018-03-09T09:15:38.228Z,96.60
2018-03-09T09:18:04.574Z,97.30
2018-03-09T09:20:30.927Z,96.10
2018-03-09T09:22:57.248Z,96.80
2018-03-09T09:25:24.286Z,96.10
2018-03-09T09:27:51.977Z,96.10
2018-03-09T09:30:19.021Z,96.40
2018-03-09T09:32:46.090Z,93.90
2018-03-09T09:35:12.409Z,93.90
2018-03-09T09:37:38.721Z,92.40
2018-03-09T09:40:05.020Z,89.00
2018-03-09T09:42:31.320Z,79.20
2018-03-09T09:45:02.660Z,72.30
2018-03-09T09:47:28.973Z,68.10
2018-03-09T09:49:55.412Z,74.30
2018-03-09T09:52:22.470Z,67.80
2018-03-09T09:54:48.776Z,67.90
2018-03-09T09:57:15.089Z,64.70
2018-03-09T09:59:42.125Z,62.20
2018-03-09T10:02:08.429Z,62.20
2018-03-09T10:04:35.850Z,62.60
2018-03-09T10:07:03.650Z,60.40
2018-03-09T10:09:29.945Z,63.60
2018-03-09T10:11:56.266Z,60.80
2018-03-09T10:14:22.580Z,59.60
2018-03-09T10:16:48.911Z,57.00
2018-03-09T10:19:15.949Z,56.30
2018-03-09T10:21:47.063Z,56.40
2018-03-09T10:24:13.382Z,56.80
2018-03-09T10:26:39.724Z,53.90
2018-03-09T10:29:06.028Z,52.20
2018-03-09T10:31:32.357Z,50.10
2018-03-09T10:33:58.657Z,46.80
2018-03-09T10:36:24.974Z,48.40
2018-03-09T10:38:56.449Z,47.80
2018-03-09T10:41:22.741Z,47.70
2018-03-09T10:43:49.041Z,43.50
2018-03-09T10:46:16.121Z,43.20
2018-03-09T10:48:42.414Z,43.20
2018-03-09T10:51:09.503Z,46.20
2018-03-09T10:53:36.551Z,41.80
2018-03-09T10:56:02.799Z,41.60
2018-03-09T10:58:32.311Z,43.10
2018-03-09T11:00:59.384Z,42.00
2018-03-09T11:03:25.708Z,42.00
2018-03-09T11:05:52.050Z,41.60
2018-03-09T11:08:18.368Z,38.90
2018-03-09T11:10:44.686Z,39.30
2018-03-09T11:13:11.014Z,40.60
2018-03-09T11:15:42.284Z,40.70
2018-03-09T11:18:08.640Z,43.60
2018-03-09T11:20:35.048Z,40.50
2018-03-09T11:23:02.067Z,38.30
2018-03-09T11:25:28.420Z,38.50
2018-03-09T11:27:54.806Z,37.50
2018-03-09T11:30:23.906Z,37.40
2018-03-09T11:32:52.253Z,39.70
2018-03-09T11:35:18.530Z,37.30
2018-03-09T11:37:45.078Z,36.80
2018-03-09T11:40:12.138Z,35.60
2018-03-09T11:42:38.476Z,35.20
2018-03-09T11:45:06.211Z,32.10
2018-03-09T11:47:34.749Z,32.00
2018-03-09T11:50:01.837Z,30.90
2018-03-09T11:52:28.190Z,30.80
2018-03-09T11:54:54.560Z,32.90
2018-03-09T11:57:20.888Z,31.10
2018-03-09T11:59:47.185Z,32.70
2018-03-09T12:02:14.299Z,33.60
2018-03-09T12:04:44.464Z,33.60
2018-03-09T12:07:10.796Z,32.40
2018-03-09T12:09:37.160Z,33.90
2018-03-09T12:12:03.555Z,34.60
2018-03-09T12:14:30.657Z,35.00
2018-03-09T12:16:57.048Z,34.20
2018-03-09T12:19:28.340Z,34.10
2018-03-09T12:21:54.718Z,33.50
2018-03-09T12:24:21.102Z,32.50
2018-03-09T12:26:47.437Z,32.20
2018-03-09T12:29:14.688Z,32.40
2018-03-09T12:31:41.020Z,32.30
2018-03-09T12:34:07.384Z,28.90
2018-03-09T12:36:35.164Z,30.30
2018-03-09T12:39:02.261Z,29.60
2018-03-09T12:41:28.596Z,29.50
2018-03-09T12:43:54.901Z,30.80
2018-03-09T12:46:21.275Z,30.30
2018-03-09T12:48:47.556Z,28.10
2018-03-09T12:51:13.874Z,28.00
2018-03-09T12:53:40.250Z,26.90
2018-03-09T12:56:06.559Z,27.00
2018-03-09T12:58:33.630Z,25.80
2018-03-09T13:00:59.960Z,25.80
2018-03-09T13:03:26.265Z,26.50
2018-03-09T13:05:52.578Z,27.30
2018-03-09T13:08:18.872Z,27.50
2018-03-09T13:10:45.980Z,25.90
2018-03-09T13:13:16.182Z,25.80
2018-03-09T13:15:43.245Z,25.40
2018-03-09T13:18:10.227Z,24.90
2018-03-09T13:20:37.200Z,24.60
2018-03-09T13:23:03.446Z,25.20
2018-03-09T13:25:29.717Z,23.70
2018-03-09T13:27:56.725Z,23.50
2018-03-09T13:30:22.985Z,23.50
2018-03-09T13:32:49.221Z,22.80
2018-03-09T13:35:15.461Z,23.70
2018-03-09T13:37:41.721Z,22.80
2018-03-09T13:40:08.094Z,23.70
2018-03-09T13:42:34.337Z,20.80
2018-03-09T13:45:01.352Z,22.70
2018-03-09T13:47:27.605Z,22.70
2018-03-09T13:49:53.865Z,21.90
2018-03-09T13:52:20.113Z,23.40
2018-03-09T13:54:46.366Z,22.70
2018-03-09T13:57:13.401Z,22.50
2018-03-09T13:59:39.701Z,22.90
2018-03-09T14:02:05.957Z,22.00
2018-03-09T14:04:32.227Z,22.40
2018-03-09T14:06:59.233Z,24.00
2018-03-09T14:09:25.492Z,23.90
2018-03-09T14:11:51.780Z,22.80
2018-03-09T14:14:18.778Z,22.60
2018-03-09T14:16:45.025Z,22.50
2018-03-09T14:19:11.302Z,23.40
2018-03-09T14:21:37.560Z,23.00
2018-03-09T14:24:03.824Z,23.60
2018-03-09T14:26:30.089Z,23.70
2018-03-09T14:28:56.359Z,24.80
2018-03-09T14:31:22.630Z,24.40
2018-03-09T14:33:49.629Z,22.50
2018-03-09T14:36:15.878Z,22.40
2018-03-09T14:38:42.170Z,22.40
2018-03-09T14:41:09.187Z,23.30
2018-03-09T14:43:35.432Z,23.30
2018-03-09T14:46:01.710Z,24.00
2018-03-09T14:48:28.721Z,22.60
2018-03-09T14:50:54.963Z,22.60
2018-03-09T14:53:21.193Z,22.00
2018-03-09T14:55:47.465Z,22.80
2018-03-09T14:58:13.718Z,21.90
2018-03-09T15:00:39.970Z,21.90
2018-03-09T15:03:06.278Z,23.50
2018-03-09T15:05:32.553Z,21.90
2018-03-09T15:07:59.541Z,23.10
2018-03-09T15:10:25.818Z,23.10
2018-03-09T15:12:52.049Z,22.30
2018-03-09T15:15:18.297Z,22.20
2018-03-09T15:17:44.690Z,22.20
2018-03-09T15:20:10.985Z,22.80
2018-03-09T15:22:37.305Z,23.40
2018-03-09T15:25:03.589Z,22.20
2018-03-09T15:27:30.589Z,23.20
2018-03-09T15:29:57.611Z,23.40
2018-03-09T15:32:23.870Z,23.40
2018-03-09T15:34:55.111Z,24.20
2018-03-09T15:37:22.145Z,23.80
2018-03-09T15:39:48.393Z,23.80
2018-03-09T15:42:14.675Z,24.80
2018-03-09T15:44:41.726Z,24.80
2018-03-09T15:47:08.963Z,24.70
2018-03-09T15:49:36.061Z,26.30
2018-03-09T15:52:03.252Z,27.20
2018-03-09T15:54:29.715Z,27.10
2018-03-09T15:56:56.010Z,27.70
2018-03-09T15:59:23.007Z,28.90
2018-03-09T16:01:49.334Z,28.90
2018-03-09T16:04:15.633Z,29.60
2018-03-09T16:06:41.914Z,31.10
2018-03-09T16:09:08.184Z,32.00
2018-03-09T16:11:34.445Z,33.30
2018-03-09T16:14:00.737Z,34.00
2018-03-09T16:16:27.023Z,34.90
2018-03-09T16:18:53.321Z,35.30
2018-03-09T16:21:19.620Z,35.30
2018-03-09T16:23:45.997Z,36.50
2018-03-09T16:26:12.282Z,37.50
2018-03-09T16:28:38.690Z,38.60
2018-03-09T16:31:04.966Z,38.30
2018-03-09T16:33:31.221Z,36.70
2018-03-09T16:35:57.494Z,36.60
2018-03-09T16:38:23.754Z,36.10
2018-03-09T16:40:50.045Z,36.90
2018-03-09T16:43:17.790Z,37.70
2018-03-09T16:45:44.105Z,37.60
2018-03-09T16:48:11.089Z,39.00
2018-03-09T16:50:37.337Z,39.00
2018-03-09T16:53:03.649Z,40.20
2018-03-09T16:55:29.933Z,41.60
2018-03-09T16:57:56.272Z,42.70
2018-03-09T17:00:23.254Z,47.00
2018-03-09T17:02:50.321Z,47.80
2018-03-09T17:05:16.611Z,48.40
2018-03-09T17:07:42.850Z,52.20
2018-03-09T17:10:09.161Z,57.40
2018-03-09T17:12:36.400Z,62.60
2018-03-09T17:15:02.676Z,62.50
2018-03-09T17:17:28.918Z,63.80
2018-03-09T17:19:55.188Z,69.80
2018-03-09T17:22:21.471Z,72.80
2018-03-09T17:24:47.724Z,79.40
2018-03-09T17:27:14.759Z,79.10
2018-03-09T17:29:41.158Z,79.10
2018-03-09T17:32:07.420Z,85.30
2018-03-09T17:34:33.682Z,86.00
2018-03-09T17:37:00.699Z,87.20
2018-03-09T17:39:26.993Z,87.20
2018-03-09T17:41:53.285Z,89.30
2018-03-09T17:44:19.546Z,90.30
2018-03-09T17:46:45.811Z,91.50
2018-03-09T17:49:12.109Z,92.90
2018-03-09T17:51:39.083Z,94.00
2018-03-09T17:54:05.322Z,94.00
2018-03-09T17:56:31.646Z,94.90
2018-03-09T17:58:57.930Z,95.70
2018-03-09T18:01:24.211Z,96.30
2018-03-09T18:03:51.205Z,97.10
2018-03-09T18:06:17.505Z,97.10
2018-03-09T18:08:43.770Z,98.30
2018-03-09T18:11:10.029Z,99.50
2018-03-09T18:13:36.378Z,99.80
2018-03-09T18:16:02.713Z,99.90
2018-03-09T18:18:28.970Z,99.90
2018-03-09T18:20:55.238Z,99.90
2018-03-09T18:23:21.526Z,99.90
2018-03-09T18:25:48.593Z,99.90
2018-03-09T18:28:14.879Z,99.90
2018-03-09T18:30:41.165Z,99.90
2018-03-09T18:33:08.313Z,99.90
2018-03-09T18:35:35.402Z,99.90
2018-03-09T18:38:01.672Z,99.90
2018-03-09T18:40:28.064Z,99.90
2018-03-09T18:42:55.065Z,99.90
2018-03-09T18:45:21.328Z,99.90
2018-03-09T18:47:47.619Z,99.90
2018-03-09T18:50:13.906Z,99.90
2018-03-09T18:52:40.159Z,99.90
2018-03-09T18:55:06.422Z,99.90
2018-03-09T18:57:33.454Z,99.90
2018-03-09T18:59:59.705Z,99.90
2018-03-09T19:02:25.952Z,99.90
2018-03-09T19:04:52.988Z,99.90
2018-03-09T19:07:19.283Z,99.90
2018-03-09T19:09:45.571Z,99.90
2018-03-09T19:12:11.842Z,99.90
2018-03-09T19:14:38.082Z,99.90
2018-03-09T19:17:04.390Z,99.90
2018-03-09T19:19:30.649Z,99.90
2018-03-09T19:21:56.897Z,99.90
2018-03-09T19:24:23.150Z,99.90
2018-03-09T19:26:50.196Z,99.90
2018-03-09T19:29:22.468Z,99.90
2018-03-09T19:31:48.714Z,99.90
2018-03-09T19:34:21.922Z,99.90
2018-03-09T19:36:48.189Z,99.90
2018-03-09T19:39:14.490Z,99.90
2018-03-09T19:41:44.609Z,99.90
2018-03-09T19:44:10.861Z,99.90
2018-03-09T19:46:37.236Z,99.90
2018-03-09T19:49:03.567Z,99.90
2018-03-09T19:51:29.869Z,99.90
2018-03-09T19:53:56.142Z,99.90
2018-03-09T19:56:22.421Z,99.90
2018-03-09T19:58:50.765Z,99.90
2018-03-09T20:01:17.022Z,99.90
2018-03-09T20:03:43.310Z,99.90
2018-03-09T20:06:09.582Z,99.90
2018-03-09T20:08:35.860Z,99.90
2018-03-09T20:11:02.142Z,99.90
2018-03-09T20:13:28.442Z,99.90
2018-03-09T20:15:58.675Z,99.90
2018-03-09T20:18:24.918Z,99.90
2018-03-09T20:20:51.170Z,99.90
2018-03-09T20:23:17.438Z,99.90
2018-03-09T20:25:43.702Z,99.90
2018-03-09T20:28:09.981Z,99.90
2018-03-09T20:30:36.304Z,99.90
2018-03-09T20:33:03.520Z,99.90
2018-03-09T20:35:32.430Z,99.90
2018-03-09T20:37:59.446Z,99.90
2018-03-09T20:40:25.777Z,99.90
2018-03-09T20:42:52.057Z,99.90
2018-03-09T20:45:18.346Z,99.90
2018-03-09T20:47:44.673Z,99.90
2018-03-09T20:50:10.962Z,99.90
2018-03-09T20:52:40.374Z,99.90
2018-03-09T20:55:08.525Z,99.90
2018-03-09T20:57:34.886Z,99.90
2018-03-09T21:00:02.714Z,99.90
2018-03-09T21:02:29.724Z,99.90
2018-03-09T21:04:55.998Z,99.90
2018-03-09T21:07:22.293Z,99.90
2018-03-09T21:09:52.578Z,99.90
2018-03-09T21:12:18.857Z,99.90
2018-03-09T21:14:45.909Z,99.90
2018-03-09T21:17:12.176Z,99.90
2018-03-09T21:19:38.448Z,99.90
2018-03-09T21:22:04.734Z,99.90
2018-03-09T21:24:30.998Z,99.90
2018-03-09T21:27:00.814Z,99.90
2018-03-09T21:29:27.829Z,99.90
2018-03-09T21:31:54.130Z,99.90
2018-03-09T21:34:21.134Z,99.90
2018-03-09T21:36:47.408Z,99.90
2018-03-09T21:39:13.692Z,99.90
2018-03-09T21:41:40.707Z,99.90
2018-03-09T21:44:06.998Z,99.90
2018-03-09T21:46:36.134Z,99.90
2018-03-09T21:49:02.586Z,99.90
2018-03-09T21:51:28.849Z,99.90
2018-03-09T21:53:55.102Z,99.90
2018-03-09T21:56:21.426Z,99.90
2018-03-09T21:58:47.684Z,99.90
2018-03-09T22:01:14.043Z,99.90
2018-03-09T22:03:40.346Z,99.90
2018-03-09T22:06:06.562Z,99.90
2018-03-09T22:08:33.550Z,99.90
2018-03-09T22:11:00.568Z,99.90
2018-03-09T22:13:26.890Z,99.90
2018-03-09T22:15:53.388Z,99.90
2018-03-09T22:18:19.811Z,99.90
2018-03-09T22:20:46.338Z,99.90
2018-03-09T22:23:12.649Z,99.90
2018-03-09T22:25:39.686Z,99.90
2018-03-09T22:28:05.993Z,99.90
2018-03-09T22:30:32.274Z,99.90
2018-03-09T22:32:58.542Z,99.90
2018-03-09T22:35:24.837Z,99.90
2018-03-09T22:37:51.112Z,99.90
2018-03-09T22:40:17.534Z,99.90
2018-03-09T22:42:43.665Z,99.90
2018-03-09T22:45:09.941Z,99.90
2018-03-09T22:47:36.213Z,99.90
2018-03-09T22:50:02.502Z,99.90
2018-03-09T22:52:28.782Z,99.90
2018-03-09T22:54:55.048Z,99.90
2018-03-09T22:57:22.146Z,99.90
2018-03-09T22:59:48.442Z,99.90
2018-03-09T23:02:14.709Z,99.90
2018-03-09T23:04:40.974Z,99.90
2018-03-09T23:07:08.883Z,99.90
2018-03-09T23:09:38.053Z,99.90
2018-03-09T23:12:05.050Z,99.90
2018-03-09T23:14:31.326Z,99.90
2018-03-09T23:16:58.349Z,99.90
2018-03-09T23:19:24.622Z,99.90
2018-03-09T23:21:51.661Z,99.90
2018-03-09T23:24:22.927Z,99.90
2018-03-09T23:26:49.216Z,99.90
2018-03-09T23:29:15.505Z,99.90
2018-03-09T23:31:41.753Z,99.90
2018-03-09T23:34:08.043Z,99.90
2018-03-09T23:36:35.093Z,99.90
2018-03-09T23:39:01.284Z,99.90
2018-03-09T23:41:33.185Z,99.90
2018-03-09T23:43:59.425Z,99.90
2018-03-09T23:46:26.414Z,99.90
2018-03-09T23:48:52.663Z,99.90
2018-03-09T23:51:19.691Z,99.90
2018-03-09T23:53:45.960Z,99.90
2018-03-09T23:56:12.206Z,99.90
2018-03-09T23:58:43.491Z,99.90
